Time,TemperatureF,DewpointF,PressureIn,WindDirection,WindDirectionDegrees,WindSpeedMPH,WindSpeedGustMPH,Humidity,HourlyPrecipIn,Conditions,Clouds,dailyrainin,SoftwareType,DateUTC
2014-01-04 00:01:00,44.2,39.4,30.27,SE,135,1.2,0.0,83,0.00,RA,,0.00,WeatherDisplay:10.37,2014-01-04 05:01:00,
2014-01-04 00:02:00,44.2,39.4,30.27,South,180,2.3,0.0,83,0.00,RA,,0.00,WeatherDisplay:10.37,2014-01-04 05:02:00,
2014-01-04 00:07:00,44.6,39.8,30.27,SE,135,2.3,2.3,83,0.00,RA,,0.00,WeatherDisplay:10.37,2014-01-04 05:07:00,
2014-01-04 00:12:00,44.8,39.9,30.27,SSE,158,1.2,0.0,83,0.00,BKN,,0.00,WeatherDisplay:10.37,2014-01-04 05:12:00,
2014-01-04 00:17:00,45.0,40.1,30.27,South,180,0.0,0.0,83,0.00,BKN,,0.00,WeatherDisplay:10.37,2014-01-04 05:17:00,
2014-01-04 00:22:00,44.8,39.9,30.27,SSE,158,2.3,2.3,83,0.00,BKN,,0.00,WeatherDisplay:10.37,2014-01-04 05:22:00,
2014-01-04 00:27:00,44.8,39.9,30.27,SW,225,2.9,2.9,83,0.00,BKN,,0.00,WeatherDisplay:10.37,2014-01-04 05:27:00,
2014-01-04 00:32:00,44.8,40.2,30.27,SE,135,2.0,0.0,84,0.00,BKN,,0.00,WeatherDisplay:10.37,2014-01-04 05:32:00,
2014-01-04 00:37:00,45.1,40.6,30.27,East,90,2.3,2.3,84,0.00,BKN,,0.00,WeatherDisplay:10.37,2014-01-04 05:37:00,
2014-01-04 00:42:00,45.1,40.6,30.27,SE,135,1.2,0.0,84,0.00,BKN,,0.00,WeatherDisplay:10.37,2014-01-04 05:42:00,
2014-01-04 00:47:00,45.1,40.6,30.27,SSE,158,2.3,2.3,84,0.00,BKN,,0.00,WeatherDisplay:10.37,2014-01-04 05:47:00,
2014-01-04 00:52:00,45.0,40.4,30.27,SSE,158,1.2,1.2,84,0.00,BKN,,0.00,WeatherDisplay:10.37,2014-01-04 05:52:00,
2014-01-04 00:57:00,45.0,40.4,30.27,South,180,2.4,2.4,84,0.00,BKN,,0.00,WeatherDisplay:10.37,2014-01-04 05:57:00,
2014-01-04 01:02:00,45.1,40.6,30.27,SSE,158,1.2,0.0,84,0.00,OVC,,0.00,WeatherDisplay:10.37,2014-01-04 06:02:00,
2014-01-04 01:07:00,45.1,40.6,30.27,SSW,202,0.0,0.0,84,0.00,OVC,,0.00,WeatherDisplay:10.37,2014-01-04 06:07:00,
2014-01-04 01:12:00,45.3,41.1,30.27,ESE,112,2.3,2.3,85,0.00,OVC,,0.00,WeatherDisplay:10.37,2014-01-04 06:12:00,
2014-01-04 01:15:00,45.3,41.1,30.27,SSW,202,1.2,0.0,85,0.00,OVC,,0.00,WeatherDisplay:10.37,2014-01-04 06:15:00,
2014-01-04 01:20:00,45.3,41.1,30.27,SSW,202,2.9,0.0,85,0.00,OVC,,0.00,WeatherDisplay:10.37,2014-01-04 06:20:00,
2014-01-04 01:25:00,45.5,41.3,30.27,South,180,0.0,0.0,85,0.00,OVC,,0.00,WeatherDisplay:10.37,2014-01-04 06:25:00,
2014-01-04 01:30:00,45.5,41.3,30.27,SSE,158,2.3,2.3,85,0.00,OVC,,0.00,WeatherDisplay:10.37,2014-01-04 06:30:00,
2014-01-04 01:35:00,45.7,41.4,30.24,South,180,3.5,3.5,85,0.00,OVC,,0.00,WeatherDisplay:10.37,2014-01-04 06:35:00,
2014-01-04 01:40:00,45.7,41.4,30.24,SSW,202,2.3,2.3,85,0.00,OVC,,0.00,WeatherDisplay:10.37,2014-01-04 06:40:00,
2014-01-04 01:45:00,45.7,41.4,30.24,SSE,158,1.2,1.2,85,0.00,OVC,,0.00,WeatherDisplay:10.37,2014-01-04 06:45:00,
2014-01-04 01:50:00,45.7,41.7,30.27,SSW,202,2.3,2.3,86,0.00,OVC,,0.00,WeatherDisplay:10.37,2014-01-04 06:50:00,
2014-01-04 01:55:00,45.7,41.7,30.27,WSW,248,3.5,3.5,86,0.00,OVC,,0.00,WeatherDisplay:10.37,2014-01-04 06:55:00,
2014-01-04 02:00:00,45.7,42.0,30.27,SSW,202,3.5,3.5,87,0.00,OVC,,0.00,WeatherDisplay:10.37,2014-01-04 07:00:00,
2014-01-04 02:05:00,45.7,42.0,30.24,WSW,248,4.6,4.6,87,0.00,CLR,,0.00,WeatherDisplay:10.37,2014-01-04 07:05:00,
2014-01-04 02:10:00,45.7,42.3,30.24,WSW,248,4.6,4.6,88,0.00,CLR,,0.00,WeatherDisplay:10.37,2014-01-04 07:10:00,
2014-01-04 02:15:00,45.7,42.3,30.24,SSW,202,3.5,3.5,88,0.00,CLR,,0.00,WeatherDisplay:10.37,2014-01-04 07:15:00,
2014-01-04 02:20:00,45.9,42.8,30.21,WSW,248,5.8,5.8,89,0.00,CLR,,0.00,WeatherDisplay:10.37,2014-01-04 07:20:00,
2014-01-04 02:25:00,45.9,43.1,30.21,WSW,248,3.5,3.5,90,0.00,CLR,,0.00,WeatherDisplay:10.37,2014-01-04 07:25:00,
2014-01-04 02:30:00,45.9,43.1,30.21,SW,225,6.9,6.9,90,0.00,CLR,,0.00,WeatherDisplay:10.37,2014-01-04 07:30:00,
2014-01-04 02:35:00,45.9,43.1,30.21,SW,225,5.8,5.8,90,0.00,CLR,,0.00,WeatherDisplay:10.37,2014-01-04 07:35:00,
2014-01-04 02:40:00,45.9,43.1,30.21,WSW,248,4.6,4.6,90,0.00,CLR,,0.00,WeatherDisplay:10.37,2014-01-04 07:40:00,
2014-01-04 02:45:00,45.9,43.4,30.21,WSW,248,4.7,4.7,91,0.00,CLR,,0.00,WeatherDisplay:10.37,2014-01-04 07:45:00,
2014-01-04 02:50:00,45.9,43.4,30.21,WSW,248,5.8,5.8,91,0.00,CLR,,0.00,WeatherDisplay:10.37,2014-01-04 07:50:00,
2014-01-04 02:55:00,45.7,42.9,30.21,WSW,248,4.6,4.6,90,0.00,CLR,,0.00,WeatherDisplay:10.37,2014-01-04 07:55:00,
2014-01-04 03:00:00,45.5,43.0,30.21,SW,235,2.0,5.0,91,0.00,CLR,,0.00,WeatherDisplay:10.37,2014-01-04 08:00:00,
2014-01-04 03:05:00,45.5,43.0,30.24,WSW,248,3.1,3.1,91,0.00,CLR,,0.00,WeatherDisplay:10.37,2014-01-04 08:05:00,
2014-01-04 03:10:00,45.5,43.3,30.24,WSW,241,2.0,5.0,92,0.00,CLR,,0.00,WeatherDisplay:10.37,2014-01-04 08:10:00,
2014-01-04 03:15:00,45.3,43.1,30.24,WSW,248,3.5,3.5,92,0.00,CLR,,0.00,WeatherDisplay:10.37,2014-01-04 08:15:00,
2014-01-04 03:20:00,45.3,43.1,30.21,South,180,2.3,2.3,92,0.00,CLR,,0.00,WeatherDisplay:10.37,2014-01-04 08:20:00,
2014-01-04 03:25:00,45.3,43.1,30.21,SSW,205,0.0,3.0,92,0.00,CLR,,0.00,WeatherDisplay:10.37,2014-01-04 08:25:00,
2014-01-04 03:30:00,45.1,43.0,30.21,SSW,202,0.0,0.0,92,0.00,CLR,,0.00,WeatherDisplay:10.37,2014-01-04 08:30:00,
2014-01-04 03:35:00,45.1,43.0,30.21,South,184,0.0,2.0,92,0.00,CLR,,0.00,WeatherDisplay:10.37,2014-01-04 08:35:00,
2014-01-04 03:40:00,45.1,43.0,30.21,South,183,0.0,2.0,92,0.00,CLR,,0.00,WeatherDisplay:10.37,2014-01-04 08:40:00,
2014-01-04 03:45:00,45.1,43.0,30.21,South,188,0.0,1.0,92,0.00,CLR,,0.00,WeatherDisplay:10.37,2014-01-04 08:45:00,
2014-01-04 03:50:00,45.1,43.0,30.21,SSW,196,0.0,1.0,92,0.00,CLR,,0.00,WeatherDisplay:10.37,2014-01-04 08:50:00,
2014-01-04 03:55:00,45.1,43.0,30.21,SSW,206,0.0,2.0,92,0.00,CLR,,0.00,WeatherDisplay:10.37,2014-01-04 08:55:00,
2014-01-04 04:00:00,45.1,43.2,30.21,SW,225,0.0,0.0,93,0.00,CLR,,0.00,WeatherDisplay:10.37,2014-01-04 09:00:00,
2014-01-04 04:05:00,45.1,43.2,30.21,SSW,206,1.0,2.0,93,0.00,CLR,,0.00,WeatherDisplay:10.37,2014-01-04 09:05:00,
2014-01-04 04:10:00,45.1,43.2,30.21,SW,216,0.0,3.0,93,0.00,CLR,,0.00,WeatherDisplay:10.37,2014-01-04 09:10:00,
2014-01-04 04:15:00,45.1,43.2,30.21,SSW,202,0.0,0.0,93,0.00,CLR,,0.00,WeatherDisplay:10.37,2014-01-04 09:15:00,
2014-01-04 04:20:00,45.1,43.5,30.21,SSW,212,0.0,4.0,94,0.00,CLR,,0.00,WeatherDisplay:10.37,2014-01-04 09:20:00,
2014-01-04 04:25:00,45.3,43.7,30.21,SSW,202,1.2,1.2,94,0.00,CLR,,0.00,WeatherDisplay:10.37,2014-01-04 09:25:00,
2014-01-04 04:30:00,45.3,43.7,30.21,SW,222,1.0,3.0,94,0.00,CLR,,0.00,WeatherDisplay:10.37,2014-01-04 09:30:00,
2014-01-04 04:35:00,45.3,43.7,30.21,SW,233,1.0,3.0,94,0.00,CLR,,0.00,WeatherDisplay:10.37,2014-01-04 09:35:00,
2014-01-04 04:40:00,45.3,44.0,30.21,SW,225,1.2,0.0,95,0.00,CLR,,0.00,WeatherDisplay:10.37,2014-01-04 09:40:00,
2014-01-04 04:45:00,45.1,43.8,30.21,SSW,202,2.3,0.0,95,0.00,CLR,,0.00,WeatherDisplay:10.37,2014-01-04 09:45:00,
2014-01-04 04:50:00,45.1,43.8,30.21,SSW,204,1.0,3.0,95,0.00,CLR,,0.00,WeatherDisplay:10.37,2014-01-04 09:50:00,
2014-01-04 04:55:00,45.3,44.0,30.21,SSW,206,2.0,3.0,95,0.00,CLR,,0.00,WeatherDisplay:10.37,2014-01-04 09:55:00,
2014-01-04 05:00:00,45.3,44.0,30.21,SW,217,0.0,0.0,95,0.00,CLR,,0.00,WeatherDisplay:10.37,2014-01-04 10:00:00,
2014-01-04 05:05:00,45.3,44.0,30.21,WNW,292,3.5,3.5,95,0.00,BKN,,0.00,WeatherDisplay:10.37,2014-01-04 10:05:00,
2014-01-04 05:10:00,45.5,44.4,30.21,WSW,248,3.5,3.5,96,0.00,BKN,,0.00,WeatherDisplay:10.37,2014-01-04 10:10:00,
2014-01-04 05:15:00,45.5,44.4,30.21,West,261,1.0,3.0,96,0.00,BKN,,0.00,WeatherDisplay:10.37,2014-01-04 10:15:00,
2014-01-04 05:20:00,45.5,44.4,30.18,WSW,248,2.3,0.0,96,0.00,BKN,,0.00,WeatherDisplay:10.37,2014-01-04 10:20:00,
2014-01-04 05:25:00,45.5,44.4,30.18,SSW,202,0.0,0.0,96,0.00,BKN,,0.00,WeatherDisplay:10.37,2014-01-04 10:25:00,
2014-01-04 05:30:00,45.5,44.4,30.18,South,183,0.0,2.0,96,0.00,BKN,,0.00,WeatherDisplay:10.37,2014-01-04 10:30:00,
2014-01-04 05:35:00,45.5,44.4,30.21,SSE,155,0.0,2.0,96,0.00,BKN,,0.00,WeatherDisplay:10.37,2014-01-04 10:35:00,
2014-01-04 05:40:00,45.3,44.2,30.21,SSE,158,0.0,0.0,96,0.00,BKN,,0.00,WeatherDisplay:10.37,2014-01-04 10:40:00,
2014-01-04 05:45:00,45.3,44.0,30.21,SSE,163,0.0,0.0,95,0.00,BKN,,0.00,WeatherDisplay:10.37,2014-01-04 10:45:00,
2014-01-04 05:50:00,45.3,44.0,30.18,SSE,158,2.3,2.3,95,0.00,BKN,,0.00,WeatherDisplay:10.37,2014-01-04 10:50:00,
2014-01-04 05:55:00,45.3,44.3,30.18,SSE,158,0.0,3.0,96,0.00,BKN,,0.00,WeatherDisplay:10.37,2014-01-04 10:55:00,
2014-01-04 06:00:00,45.5,44.4,30.18,SSW,202,1.2,0.0,96,0.00,BKN,,0.00,WeatherDisplay:10.37,2014-01-04 11:00:00,
2014-01-04 06:05:00,45.5,44.4,30.18,SSW,194,0.0,1.0,96,0.00,BKN,,0.00,WeatherDisplay:10.37,2014-01-04 11:05:00,
2014-01-04 06:10:00,45.7,44.6,30.18,South,186,0.0,2.0,96,0.00,BKN,,0.00,WeatherDisplay:10.37,2014-01-04 11:10:00,
2014-01-04 06:15:00,45.7,44.6,30.18,SSE,158,0.0,0.0,96,0.00,BKN,,0.00,WeatherDisplay:10.37,2014-01-04 11:15:00,
2014-01-04 06:20:00,45.9,44.8,30.21,SSW,202,2.2,0.0,96,0.00,BKN,,0.00,WeatherDisplay:10.37,2014-01-04 11:20:00,
2014-01-04 06:25:00,45.9,44.8,30.21,South,172,0.0,2.0,96,0.00,BKN,,0.00,WeatherDisplay:10.37,2014-01-04 11:25:00,
2014-01-04 06:30:00,46.0,45.0,30.21,South,180,0.0,0.0,96,0.00,BKN,,0.00,WeatherDisplay:10.37,2014-01-04 11:30:00,
2014-01-04 06:35:00,46.2,45.1,30.24,South,174,0.0,3.0,96,0.00,BKN,,0.00,WeatherDisplay:10.37,2014-01-04 11:35:00,
2014-01-04 06:40:00,46.2,45.1,30.24,South,170,0.0,0.0,96,0.00,BKN,,0.00,WeatherDisplay:10.37,2014-01-04 11:40:00,
2014-01-04 06:45:00,46.4,45.0,30.24,WSW,248,0.0,0.0,95,0.00,BKN,,0.00,WeatherDisplay:10.37,2014-01-04 11:45:00,
2014-01-04 06:50:00,46.6,45.2,30.21,SW,218,0.0,1.0,95,0.00,BKN,,0.00,WeatherDisplay:10.37,2014-01-04 11:50:00,
2014-01-04 06:55:00,46.6,45.2,30.21,SW,224,1.0,3.0,95,0.00,BKN,,0.00,WeatherDisplay:10.37,2014-01-04 11:55:00,
2014-01-04 07:00:00,46.8,45.7,30.21,South,180,2.3,0.0,96,0.00,BKN,,0.00,WeatherDisplay:10.37,2014-01-04 12:00:00,
2014-01-04 07:05:00,46.8,45.7,30.24,South,183,0.0,2.0,96,0.00,BKN,,0.00,WeatherDisplay:10.37,2014-01-04 12:05:00,
2014-01-04 07:10:00,46.9,45.9,30.24,SSW,201,1.0,3.0,96,0.00,BKN,,0.00,WeatherDisplay:10.37,2014-01-04 12:10:00,
2014-01-04 07:15:00,47.1,46.0,30.24,SSW,202,3.5,3.5,96,0.00,BKN,,0.00,WeatherDisplay:10.37,2014-01-04 12:15:00,
2014-01-04 07:20:00,47.3,46.2,30.21,SW,218,1.0,3.0,96,0.00,BKN,,0.00,WeatherDisplay:10.37,2014-01-04 12:20:00,
2014-01-04 07:25:00,47.3,46.2,30.21,SSW,205,0.0,2.0,96,0.00,BKN,,0.00,WeatherDisplay:10.37,2014-01-04 12:25:00,
2014-01-04 07:30:00,47.3,46.2,30.21,SSW,202,1.2,0.0,96,0.00,BKN,,0.00,WeatherDisplay:10.37,2014-01-04 12:30:00,
2014-01-04 07:35:00,47.5,46.4,30.24,South,189,0.0,3.0,96,0.00,BKN,,0.00,WeatherDisplay:10.37,2014-01-04 12:35:00,
2014-01-04 07:40:00,47.7,46.6,30.24,WSW,248,2.3,2.3,96,0.00,BKN,,0.00,WeatherDisplay:10.37,2014-01-04 12:40:00,
2014-01-04 07:45:00,47.8,46.8,30.24,WSW,240,0.0,3.0,96,0.00,BKN,,0.00,WeatherDisplay:10.37,2014-01-04 12:45:00,
2014-01-04 07:50:00,48.0,46.7,30.24,SW,235,0.0,3.0,95,0.00,BKN,,0.00,WeatherDisplay:10.37,2014-01-04 12:50:00,
2014-01-04 07:55:00,48.2,46.8,30.24,SSW,195,1.0,2.0,95,0.00,BKN,,0.00,WeatherDisplay:10.37,2014-01-04 12:55:00,
2014-01-04 08:00:00,48.4,47.0,30.24,SSE,168,1.0,2.0,95,0.00,BKN,,0.00,WeatherDisplay:10.37,2014-01-04 13:00:00,
2014-01-04 08:05:00,48.6,47.2,30.24,South,188,1.0,3.0,95,0.00,BKN,,0.00,WeatherDisplay:10.37,2014-01-04 13:05:00,
2014-01-04 08:10:00,48.6,46.9,30.24,WSW,248,2.9,2.9,94,0.00,BKN,,0.00,WeatherDisplay:10.37,2014-01-04 13:10:00,
2014-01-04 08:15:00,48.7,47.1,30.24,WSW,248,3.5,3.5,94,0.00,BKN,,0.00,WeatherDisplay:10.37,2014-01-04 13:15:00,
2014-01-04 08:20:00,49.1,47.4,30.24,WSW,240,1.0,3.0,94,0.00,BKN,,0.00,WeatherDisplay:10.37,2014-01-04 13:20:00,
2014-01-04 08:25:00,49.6,48.0,30.24,WSW,248,2.3,2.3,94,0.00,BKN,,0.00,WeatherDisplay:10.37,2014-01-04 13:25:00,
2014-01-04 08:30:00,50.1,48.4,30.24,South,191,0.0,2.0,94,0.00,BKN,,0.00,WeatherDisplay:10.37,2014-01-04 13:30:00,
2014-01-04 08:35:00,50.5,48.6,30.24,West,270,2.4,2.4,93,0.00,BKN,,0.00,WeatherDisplay:10.37,2014-01-04 13:35:00,
2014-01-04 08:40:00,51.1,48.5,30.24,WNW,292,3.5,3.5,91,0.00,BKN,,0.00,WeatherDisplay:10.37,2014-01-04 13:40:00,
2014-01-04 08:45:00,51.6,48.7,30.24,West,269,3.0,6.0,90,0.00,BKN,,0.00,WeatherDisplay:10.37,2014-01-04 13:45:00,
2014-01-04 08:50:00,52.2,49.3,30.21,WSW,248,2.3,0.0,90,0.00,BKN,,0.00,WeatherDisplay:10.37,2014-01-04 13:50:00,
2014-01-04 08:55:00,52.5,49.7,30.21,WSW,237,0.0,3.0,90,0.00,BKN,,0.00,WeatherDisplay:10.37,2014-01-04 13:55:00,
2014-01-04 09:00:00,52.8,49.9,30.21,South,172,2.0,3.0,90,0.00,BKN,,0.00,WeatherDisplay:10.37,2014-01-04 14:00:00,
2014-01-04 09:05:00,53.1,49.6,30.30,SE,145,3.0,5.0,88,0.00,CLR,,0.00,WeatherDisplay:10.37,2014-01-04 14:05:00,
2014-01-04 09:10:00,53.4,49.6,30.30,South,180,4.6,4.6,87,0.00,CLR,,0.00,WeatherDisplay:10.37,2014-01-04 14:10:00,
2014-01-04 09:15:00,53.7,49.9,30.30,South,169,0.0,3.0,87,0.00,CLR,,0.00,WeatherDisplay:10.37,2014-01-04 14:15:00,
2014-01-04 09:20:00,54.0,49.9,30.27,SSW,205,1.0,3.0,86,0.00,CLR,,0.00,WeatherDisplay:10.37,2014-01-04 14:20:00,
2014-01-04 09:25:00,53.8,49.4,30.27,SW,217,2.0,4.0,85,0.00,CLR,,0.00,WeatherDisplay:10.37,2014-01-04 14:25:00,
2014-01-04 09:30:00,54.0,49.9,30.27,South,180,2.3,2.3,86,0.00,CLR,,0.00,WeatherDisplay:10.37,2014-01-04 14:30:00,
2014-01-04 09:35:00,54.1,49.7,30.27,SSW,202,3.5,3.5,85,0.00,CLR,,0.00,WeatherDisplay:10.37,2014-01-04 14:35:00,
2014-01-04 09:40:00,54.3,49.8,30.27,SSW,204,1.0,4.0,85,0.00,CLR,,0.00,WeatherDisplay:10.37,2014-01-04 14:40:00,
2014-01-04 09:45:00,54.5,50.1,30.27,SSW,202,2.6,2.6,85,0.00,CLR,,0.00,WeatherDisplay:10.37,2014-01-04 14:45:00,
2014-01-04 09:50:00,54.5,50.1,30.24,South,180,2.3,2.3,85,0.00,CLR,,0.00,WeatherDisplay:10.37,2014-01-04 14:50:00,
2014-01-04 09:55:00,55.0,50.6,30.24,South,191,2.0,5.0,85,0.00,CLR,,0.00,WeatherDisplay:10.37,2014-01-04 14:55:00,
2014-01-04 10:00:00,55.5,50.7,30.24,SW,214,2.0,4.0,84,0.00,CLR,,0.00,WeatherDisplay:10.37,2014-01-04 15:00:00,
2014-01-04 10:05:00,56.1,51.0,30.27,SSW,208,0.0,5.0,83,0.00,SCT,,0.00,WeatherDisplay:10.37,2014-01-04 15:05:00,
2014-01-04 10:10:00,56.5,50.4,30.27,SSE,158,5.8,5.8,80,0.00,SCT,,0.00,WeatherDisplay:10.37,2014-01-04 15:10:00,
2014-01-04 10:15:00,57.2,50.7,30.27,WSW,248,3.5,3.5,79,0.00,SCT,,0.00,WeatherDisplay:10.37,2014-01-04 15:15:00,
2014-01-04 10:20:00,58.3,51.8,30.27,WSW,248,1.6,1.6,79,0.00,SCT,,0.00,WeatherDisplay:10.37,2014-01-04 15:20:00,
2014-01-04 10:25:00,59.2,51.6,30.27,SW,221,2.0,5.0,76,0.00,SCT,,0.00,WeatherDisplay:10.37,2014-01-04 15:25:00,
2014-01-04 10:30:00,60.3,51.9,30.27,WSW,248,3.5,3.5,74,0.00,SCT,,0.00,WeatherDisplay:10.37,2014-01-04 15:30:00,
2014-01-04 10:35:00,60.1,51.0,30.30,SW,215,2.0,4.0,72,0.00,SCT,,0.00,WeatherDisplay:10.37,2014-01-04 15:35:00,
2014-01-04 10:40:00,59.5,50.5,30.30,SW,214,3.0,5.0,72,0.00,SCT,,0.00,WeatherDisplay:10.37,2014-01-04 15:40:00,
2014-01-04 10:45:00,58.9,50.6,30.30,SW,217,3.0,6.0,74,0.00,SCT,,0.00,WeatherDisplay:10.37,2014-01-04 15:45:00,
2014-01-04 10:50:00,59.2,51.3,30.24,WSW,248,6.2,6.2,75,0.00,SCT,,0.00,WeatherDisplay:10.37,2014-01-04 15:50:00,
2014-01-04 10:55:00,59.7,51.8,30.24,WSW,248,4.6,4.6,75,0.00,SCT,,0.00,WeatherDisplay:10.37,2014-01-04 15:55:00,
2014-01-04 11:00:00,60.4,51.7,30.24,SW,231,5.0,7.0,73,0.00,SCT,,0.00,WeatherDisplay:10.37,2014-01-04 16:00:00,
2014-01-04 11:05:00,60.8,51.3,30.24,SW,228,5.0,7.0,71,0.00,FEW,,0.00,WeatherDisplay:10.37,2014-01-04 16:05:00,
2014-01-04 11:10:00,60.6,51.9,30.24,SW,225,4.6,4.6,73,0.00,FEW,,0.00,WeatherDisplay:10.37,2014-01-04 16:10:00,
2014-01-04 11:15:00,60.6,51.5,30.24,SW,225,3.0,6.0,72,0.00,FEW,,0.00,WeatherDisplay:10.37,2014-01-04 16:15:00,
2014-01-04 11:20:00,61.5,52.7,30.24,SW,224,1.0,5.0,73,0.00,FEW,,0.00,WeatherDisplay:10.37,2014-01-04 16:20:00,
2014-01-04 11:25:00,62.6,53.4,30.24,SW,225,2.4,3.1,72,0.00,FEW,,0.00,WeatherDisplay:10.37,2014-01-04 16:25:00,
2014-01-04 11:30:00,63.1,53.2,30.24,WSW,249,3.0,5.0,70,0.00,FEW,,0.00,WeatherDisplay:10.37,2014-01-04 16:30:00,
2014-01-04 11:35:00,65.3,54.9,30.24,WSW,253,2.0,5.0,69,0.00,FEW,,0.00,WeatherDisplay:10.37,2014-01-04 16:35:00,
2014-01-04 11:40:00,66.2,53.7,30.24,WSW,248,4.6,5.4,64,0.00,FEW,,0.00,WeatherDisplay:10.37,2014-01-04 16:40:00,
2014-01-04 11:45:00,65.1,53.0,30.24,WSW,245,3.0,8.0,65,0.00,FEW,,0.00,WeatherDisplay:10.37,2014-01-04 16:45:00,
2014-01-04 11:50:00,64.2,53.0,30.21,SSW,202,6.9,6.9,67,0.00,FEW,,0.00,WeatherDisplay:10.37,2014-01-04 16:50:00,
2014-01-04 11:55:00,64.9,54.1,30.21,WNW,292,5.8,5.8,68,0.00,FEW,,0.00,WeatherDisplay:10.37,2014-01-04 16:55:00,
2014-01-04 12:00:00,65.3,54.1,30.21,West,270,8.1,8.1,67,0.00,FEW,,0.00,WeatherDisplay:10.37,2014-01-04 17:00:00,
2014-01-04 12:05:00,65.7,54.4,30.21,WSW,248,3.8,4.3,67,0.00,CLR,,0.00,WeatherDisplay:10.37,2014-01-04 17:05:00,
2014-01-04 12:10:00,66.2,54.5,30.21,SW,225,5.8,5.9,66,0.00,CLR,,0.00,WeatherDisplay:10.37,2014-01-04 17:10:00,
2014-01-04 12:15:00,67.1,55.4,30.21,SSW,202,5.8,5.8,66,0.00,CLR,,0.00,WeatherDisplay:10.37,2014-01-04 17:15:00,
2014-01-04 12:20:00,66.9,54.4,30.18,WSW,238,6.0,8.0,64,0.00,CLR,,0.00,WeatherDisplay:10.37,2014-01-04 17:20:00,
2014-01-04 12:25:00,67.5,55.3,30.18,West,259,5.0,8.0,65,0.00,CLR,,0.00,WeatherDisplay:10.37,2014-01-04 17:25:00,
2014-01-04 12:30:00,67.2,55.1,30.18,West,261,3.0,7.0,65,0.00,CLR,,0.00,WeatherDisplay:10.37,2014-01-04 17:30:00,
2014-01-04 12:35:00,66.7,54.6,30.21,SSW,202,5.8,5.8,65,0.00,CLR,,0.00,WeatherDisplay:10.37,2014-01-04 17:35:00,
2014-01-04 12:40:00,67.0,55.3,30.21,WSW,240,3.0,7.0,66,0.00,CLR,,0.00,WeatherDisplay:10.37,2014-01-04 17:40:00,
2014-01-04 12:45:00,67.1,54.9,30.21,WSW,247,5.0,7.0,65,0.00,CLR,,0.00,WeatherDisplay:10.37,2014-01-04 17:45:00,
2014-01-04 12:50:00,66.9,55.2,30.21,WNW,292,4.9,4.9,66,0.00,CLR,,0.00,WeatherDisplay:10.37,2014-01-04 17:50:00,
2014-01-04 12:55:00,66.7,55.0,30.21,WSW,244,3.0,7.0,66,0.00,CLR,,0.00,WeatherDisplay:10.37,2014-01-04 17:55:00,
2014-01-04 13:00:00,66.7,55.0,30.21,WNW,292,8.1,8.1,66,0.00,CLR,,0.00,WeatherDisplay:10.37,2014-01-04 18:00:00,
2014-01-04 13:05:00,66.7,55.4,30.21,SSW,202,4.9,4.9,67,0.00,BKN,,0.00,WeatherDisplay:10.37,2014-01-04 18:05:00,
2014-01-04 13:10:00,66.7,56.2,30.19,WSW,248,5.8,5.8,69,0.00,BKN,,0.00,WeatherDisplay:10.37,2014-01-04 18:10:00,
2014-01-04 13:15:00,66.4,55.9,30.19,West,270,5.9,5.9,69,0.00,BKN,,0.00,WeatherDisplay:10.37,2014-01-04 18:15:00,
2014-01-04 13:20:00,66.4,55.9,30.18,WSW,248,5.8,5.8,69,0.00,BKN,,0.00,WeatherDisplay:10.37,2014-01-04 18:20:00,
2014-01-04 13:25:00,66.6,56.5,30.18,WNW,292,3.8,3.8,70,0.00,BKN,,0.00,WeatherDisplay:10.37,2014-01-04 18:25:00,
2014-01-04 13:30:00,66.0,56.0,30.18,WNW,292,6.9,6.9,70,0.00,BKN,,0.00,WeatherDisplay:10.37,2014-01-04 18:30:00,
2014-01-04 13:35:00,65.8,56.2,30.18,SW,225,6.9,6.9,71,0.00,BKN,,0.00,WeatherDisplay:10.37,2014-01-04 18:35:00,
2014-01-04 13:40:00,65.7,55.2,30.19,WSW,248,6.2,6.2,69,0.00,BKN,,0.00,WeatherDisplay:10.37,2014-01-04 18:40:00,
2014-01-04 13:45:00,65.7,55.2,30.19,WSW,248,3.5,3.5,69,0.00,BKN,,0.00,WeatherDisplay:10.37,2014-01-04 18:45:00,
2014-01-04 13:50:00,65.7,56.8,30.18,SSW,202,4.6,4.6,73,0.00,BKN,,0.00,WeatherDisplay:10.37,2014-01-04 18:50:00,
2014-01-04 13:55:00,65.5,56.6,30.18,WSW,248,5.8,5.8,73,0.00,BKN,,0.00,WeatherDisplay:10.37,2014-01-04 18:55:00,
2014-01-04 14:00:00,65.5,56.6,30.18,West,270,4.6,4.7,73,0.00,BKN,,0.00,WeatherDisplay:10.37,2014-01-04 19:00:00,
2014-01-04 14:05:00,65.7,57.1,30.18,WNW,292,3.5,3.5,74,0.00,BKN,,0.00,WeatherDisplay:10.37,2014-01-04 19:05:00,
2014-01-04 14:10:00,65.8,55.4,30.18,WSW,248,3.5,3.5,69,0.00,BKN,,0.00,WeatherDisplay:10.37,2014-01-04 19:10:00,
2014-01-04 14:15:00,66.0,57.5,30.18,WSW,248,4.6,4.6,74,0.00,BKN,,0.00,WeatherDisplay:10.37,2014-01-04 19:15:00,
2014-01-04 14:20:00,66.2,57.7,30.18,SW,225,3.1,3.1,74,0.00,BKN,,0.00,WeatherDisplay:10.37,2014-01-04 19:20:00,
2014-01-04 14:26:00,66.2,57.3,30.18,SSW,202,3.5,3.5,73,0.00,BKN,,0.00,WeatherDisplay:10.37,2014-01-04 19:26:00,
2014-01-04 14:31:00,66.0,55.6,30.18,WSW,248,4.6,4.6,69,0.00,BKN,,0.00,WeatherDisplay:10.37,2014-01-04 19:31:00,
2014-01-04 14:36:00,65.7,57.1,30.18,WSW,248,3.5,3.5,74,0.00,BKN,,0.00,WeatherDisplay:10.37,2014-01-04 19:36:00,
2014-01-04 14:41:00,65.5,57.0,30.18,WSW,248,4.6,4.6,74,0.00,BKN,,0.00,WeatherDisplay:10.37,2014-01-04 19:41:00,
2014-01-04 14:46:00,65.3,57.2,30.18,SW,225,3.6,3.6,75,0.00,BKN,,0.00,WeatherDisplay:10.37,2014-01-04 19:46:00,
2014-01-04 14:51:00,65.3,57.5,30.18,SSW,202,3.5,3.5,76,0.00,BKN,,0.00,WeatherDisplay:10.37,2014-01-04 19:51:00,
2014-01-04 14:56:00,65.3,57.5,30.18,WSW,248,2.3,2.3,76,0.00,BKN,,0.00,WeatherDisplay:10.37,2014-01-04 19:56:00,
2014-01-04 15:01:00,65.1,57.7,30.18,WSW,248,4.0,4.0,77,0.00,BKN,,0.00,WeatherDisplay:10.37,2014-01-04 20:01:00,
2014-01-04 15:06:00,64.9,57.6,30.18,SSW,202,4.6,4.6,77,0.00,BKN,,0.00,WeatherDisplay:10.37,2014-01-04 20:06:00,
2014-01-04 15:11:00,64.9,57.9,30.18,WSW,248,3.6,3.6,78,0.00,BKN,,0.00,WeatherDisplay:10.37,2014-01-04 20:11:00,
2014-01-04 15:16:00,64.8,58.1,30.18,WSW,248,4.6,4.6,79,0.00,BKN,,0.00,WeatherDisplay:10.37,2014-01-04 20:16:00,
2014-01-04 15:21:00,64.8,58.1,30.18,WSW,248,3.8,3.8,79,0.00,BKN,,0.00,WeatherDisplay:10.37,2014-01-04 20:21:00,
2014-01-04 15:26:00,64.6,58.3,30.18,WSW,248,5.8,5.8,80,0.00,BKN,,0.00,WeatherDisplay:10.37,2014-01-04 20:26:00,
2014-01-04 15:31:00,64.4,58.1,30.18,WSW,248,6.0,6.0,80,0.00,BKN,,0.00,WeatherDisplay:10.37,2014-01-04 20:31:00,
2014-01-04 15:36:00,64.2,58.3,30.15,WSW,248,6.4,6.4,81,0.00,BKN,,0.00,WeatherDisplay:10.37,2014-01-04 20:36:00,
2014-01-04 15:41:00,63.9,58.3,30.15,WSW,248,4.7,4.7,82,0.00,BKN,,0.00,WeatherDisplay:10.37,2014-01-04 20:41:00,
2014-01-04 15:46:00,63.9,58.3,30.15,SSW,202,5.8,5.8,82,0.00,BKN,,0.00,WeatherDisplay:10.37,2014-01-04 20:46:00,
2014-01-04 15:51:00,63.9,58.3,30.12,WSW,248,5.8,5.8,82,0.00,BKN,,0.00,WeatherDisplay:10.37,2014-01-04 20:51:00,
2014-01-04 15:56:00,63.7,58.1,30.12,WSW,248,8.1,8.1,82,0.00,BKN,,0.00,WeatherDisplay:10.37,2014-01-04 20:56:00,
2014-01-04 16:01:00,63.3,57.7,30.12,WNW,292,6.9,6.9,82,0.00,BKN,,0.00,WeatherDisplay:10.37,2014-01-04 21:01:00,
2014-01-04 16:06:00,63.3,58.1,30.15,WSW,248,9.2,9.2,83,0.00,CLR,,0.00,WeatherDisplay:10.37,2014-01-04 21:06:00,
2014-01-04 16:11:00,63.1,57.9,30.15,SSW,202,8.1,8.1,83,0.00,CLR,,0.00,WeatherDisplay:10.37,2014-01-04 21:11:00,
2014-01-04 16:16:00,63.0,58.0,30.15,WSW,248,6.9,6.9,84,0.00,CLR,,0.00,WeatherDisplay:10.37,2014-01-04 21:16:00,
2014-01-04 16:21:00,62.8,58.2,30.15,WSW,248,9.8,9.8,85,0.00,CLR,,0.00,WeatherDisplay:10.37,2014-01-04 21:21:00,
2014-01-04 16:26:00,62.8,58.2,30.15,West,270,5.4,5.4,85,0.00,CLR,,0.00,WeatherDisplay:10.37,2014-01-04 21:26:00,
2014-01-04 16:31:00,62.6,58.4,30.15,WSW,248,6.9,6.9,86,0.00,CLR,,0.00,WeatherDisplay:10.37,2014-01-04 21:31:00,
2014-01-04 16:36:00,62.2,58.6,30.15,West,270,8.1,8.1,88,0.00,CLR,,0.00,WeatherDisplay:10.37,2014-01-04 21:36:00,
2014-01-04 16:41:00,62.1,58.5,30.15,WSW,248,6.2,6.2,88,0.00,CLR,,0.00,WeatherDisplay:10.37,2014-01-04 21:41:00,
2014-01-04 16:46:00,61.9,58.6,30.15,West,270,7.1,7.1,89,0.00,CLR,,0.00,WeatherDisplay:10.37,2014-01-04 21:46:00,
2014-01-04 16:51:00,61.7,58.4,30.15,WNW,292,8.1,8.1,89,0.00,CLR,,0.00,WeatherDisplay:10.37,2014-01-04 21:51:00,
2014-01-04 16:56:00,61.5,58.2,30.15,West,270,8.1,8.1,89,0.00,CLR,,0.00,WeatherDisplay:10.37,2014-01-04 21:56:00,
2014-01-04 17:01:00,61.5,58.2,30.15,WNW,292,7.4,7.4,89,0.00,CLR,,0.00,WeatherDisplay:10.37,2014-01-04 22:01:00,
2014-01-04 17:06:00,61.3,58.1,30.12,WNW,292,8.1,8.1,89,0.00,FEW,,0.00,WeatherDisplay:10.37,2014-01-04 22:06:00,
2014-01-04 17:11:00,61.2,57.9,30.12,NW,315,9.2,9.2,89,0.00,FEW,,0.00,WeatherDisplay:10.37,2014-01-04 22:11:00,
2014-01-04 17:16:00,61.0,57.7,30.12,WNW,292,5.8,5.8,89,0.00,FEW,,0.00,WeatherDisplay:10.37,2014-01-04 22:16:00,
2014-01-04 17:20:00,61.0,58.0,30.15,West,270,8.5,8.5,90,0.00,FEW,,0.00,WeatherDisplay:10.37,2014-01-04 22:20:00,
2014-01-04 17:25:00,60.8,57.8,30.15,West,270,5.8,5.8,90,0.00,FEW,,0.00,WeatherDisplay:10.37,2014-01-04 22:25:00,
2014-01-04 17:30:00,60.6,58.0,30.15,WSW,248,8.1,8.1,91,0.00,FEW,,0.00,WeatherDisplay:10.37,2014-01-04 22:30:00,
2014-01-04 17:35:00,60.4,57.8,30.18,West,270,5.8,5.8,91,0.00,FEW,,0.00,WeatherDisplay:10.37,2014-01-04 22:35:00,
2014-01-04 17:40:00,60.4,57.8,30.18,NNW,338,5.8,5.8,91,0.00,FEW,,0.00,WeatherDisplay:10.37,2014-01-04 22:40:00,
2014-01-04 17:45:00,60.3,57.6,30.18,WNW,292,8.1,8.1,91,0.00,FEW,,0.00,WeatherDisplay:10.37,2014-01-04 22:45:00,
2014-01-04 17:50:00,60.1,57.4,30.15,WSW,248,4.3,4.3,91,0.00,FEW,,0.00,WeatherDisplay:10.37,2014-01-04 22:50:00,
2014-01-04 17:55:00,59.9,57.6,30.15,SW,225,4.6,4.6,92,0.00,FEW,,0.00,WeatherDisplay:10.37,2014-01-04 22:55:00,
2014-01-04 18:00:00,59.7,57.4,30.15,WSW,248,6.0,6.0,92,0.00,FEW,,0.00,WeatherDisplay:10.37,2014-01-04 23:00:00,
2014-01-04 18:05:00,59.7,57.4,30.18,WNW,292,5.8,5.8,92,0.00,FEW,,0.00,WeatherDisplay:10.37,2014-01-04 23:05:00,
2014-01-04 18:10:00,59.5,57.5,30.18,WNW,292,4.6,4.6,93,0.00,FEW,,0.00,WeatherDisplay:10.37,2014-01-04 23:10:00,
2014-01-04 18:15:00,59.4,57.3,30.18,West,270,4.6,4.6,93,0.00,FEW,,0.00,WeatherDisplay:10.37,2014-01-04 23:15:00,
2014-01-04 18:20:00,59.4,57.3,30.18,WSW,248,6.0,6.0,93,0.00,FEW,,0.00,WeatherDisplay:10.37,2014-01-04 23:20:00,
2014-01-04 18:25:00,59.2,57.5,30.18,WSW,248,4.6,4.6,94,0.00,FEW,,0.00,WeatherDisplay:10.37,2014-01-04 23:25:00,
2014-01-04 18:30:00,59.2,57.2,30.18,WSW,248,3.5,3.5,93,0.00,FEW,,0.00,WeatherDisplay:10.37,2014-01-04 23:30:00,
2014-01-04 18:35:00,59.2,57.2,30.18,West,270,3.5,3.5,93,0.00,FEW,,0.00,WeatherDisplay:10.37,2014-01-04 23:35:00,
2014-01-04 18:40:00,59.2,57.2,30.18,West,270,2.3,2.3,93,0.00,FEW,,0.00,WeatherDisplay:10.37,2014-01-04 23:40:00,
2014-01-04 18:45:00,59.0,57.0,30.18,WSW,248,2.4,2.4,93,0.00,FEW,,0.00,WeatherDisplay:10.37,2014-01-04 23:45:00,
2014-01-04 18:50:00,59.0,57.3,30.18,WNW,292,4.6,4.6,94,0.00,FEW,,0.00,WeatherDisplay:10.37,2014-01-04 23:50:00,
2014-01-04 18:55:00,59.0,57.3,30.18,WSW,248,5.4,5.4,94,0.00,FEW,,0.00,WeatherDisplay:10.37,2014-01-04 23:55:00,
2014-01-04 19:00:00,58.8,57.1,30.18,West,270,3.1,3.1,94,0.00,FEW,,0.00,WeatherDisplay:10.37,2014-01-05 00:00:00,
2014-01-04 19:05:00,58.8,57.4,30.18,WNW,292,4.7,4.7,95,0.00,FEW,,0.00,WeatherDisplay:10.37,2014-01-05 00:05:00,
2014-01-04 19:10:00,58.8,57.4,30.18,WNW,292,3.5,3.5,95,0.00,FEW,,0.00,WeatherDisplay:10.37,2014-01-05 00:10:00,
2014-01-04 19:15:00,58.8,57.4,30.18,WSW,248,5.8,5.8,95,0.00,FEW,,0.00,WeatherDisplay:10.37,2014-01-05 00:15:00,
2014-01-04 19:20:00,58.8,57.4,30.18,WSW,248,5.8,5.8,95,0.00,FEW,,0.00,WeatherDisplay:10.37,2014-01-05 00:20:00,
2014-01-04 19:25:00,58.8,57.4,30.18,WSW,248,4.6,4.6,95,0.00,FEW,,0.00,WeatherDisplay:10.37,2014-01-05 00:25:00,
2014-01-04 19:30:00,58.8,57.4,30.18,WSW,248,3.8,3.8,95,0.00,FEW,,0.00,WeatherDisplay:10.37,2014-01-05 00:30:00,
2014-01-04 19:35:00,58.6,57.2,30.18,WNW,292,4.7,4.7,95,0.00,FEW,,0.00,WeatherDisplay:10.37,2014-01-05 00:35:00,
2014-01-04 19:40:00,58.6,57.2,30.18,NW,315,4.6,4.6,95,0.00,FEW,,0.00,WeatherDisplay:10.37,2014-01-05 00:40:00,
2014-01-04 19:45:00,58.5,57.0,30.18,WNW,292,3.6,3.6,95,0.00,FEW,,0.00,WeatherDisplay:10.37,2014-01-05 00:45:00,
2014-01-04 19:50:00,58.5,57.0,30.18,WSW,248,3.5,3.5,95,0.00,FEW,,0.00,WeatherDisplay:10.37,2014-01-05 00:50:00,
2014-01-04 19:55:00,58.5,57.0,30.18,West,270,6.0,6.0,95,0.00,FEW,,0.00,WeatherDisplay:10.37,2014-01-05 00:55:00,
2014-01-04 20:00:00,58.3,56.9,30.18,WSW,248,4.6,4.6,95,0.00,FEW,,0.00,WeatherDisplay:10.37,2014-01-05 01:00:00,
2014-01-04 20:05:00,58.3,57.1,30.18,WNW,292,5.8,5.8,96,0.00,FEW,,0.00,WeatherDisplay:10.37,2014-01-05 01:05:00,
2014-01-04 20:10:00,58.1,56.7,30.18,WNW,292,3.5,3.5,95,0.00,FEW,,0.00,WeatherDisplay:10.37,2014-01-05 01:10:00,
2014-01-04 20:15:00,58.1,56.7,30.18,WSW,248,3.5,3.5,95,0.00,FEW,,0.00,WeatherDisplay:10.37,2014-01-05 01:15:00,
2014-01-04 20:20:00,58.1,57.0,30.18,WNW,292,5.8,5.8,96,0.00,FEW,,0.00,WeatherDisplay:10.37,2014-01-05 01:20:00,
2014-01-04 20:25:00,57.9,56.8,30.18,West,270,5.8,5.8,96,0.00,FEW,,0.00,WeatherDisplay:10.37,2014-01-05 01:25:00,
2014-01-04 20:30:00,57.7,56.6,30.18,WSW,248,3.5,3.5,96,0.00,FEW,,0.00,WeatherDisplay:10.37,2014-01-05 01:30:00,
2014-01-04 20:35:00,57.7,56.6,30.18,WSW,248,4.6,4.6,96,0.00,FEW,,0.00,WeatherDisplay:10.37,2014-01-05 01:35:00,
2014-01-04 20:40:00,57.6,56.4,30.18,WSW,248,5.8,5.8,96,0.00,FEW,,0.00,WeatherDisplay:10.37,2014-01-05 01:40:00,
2014-01-04 20:45:00,57.6,56.7,30.18,SW,225,4.6,4.6,97,0.00,FEW,,0.00,WeatherDisplay:10.37,2014-01-05 01:45:00,
2014-01-04 20:50:00,57.6,56.7,30.18,WSW,248,6.9,6.9,97,0.00,FEW,,0.00,WeatherDisplay:10.37,2014-01-05 01:50:00,
2014-01-04 20:55:00,57.6,56.7,30.18,WSW,248,5.8,5.8,97,0.00,FEW,,0.00,WeatherDisplay:10.37,2014-01-05 01:55:00,
2014-01-04 21:00:00,57.4,56.5,30.18,SW,225,4.6,4.6,97,0.00,FEW,,0.00,WeatherDisplay:10.37,2014-01-05 02:00:00,
2014-01-04 21:05:00,57.2,56.4,30.15,WSW,248,4.6,4.6,97,0.00,BKN,,0.00,WeatherDisplay:10.37,2014-01-05 02:05:00,
2014-01-04 21:10:00,57.2,56.4,30.15,West,270,5.8,5.8,97,0.00,BKN,,0.00,WeatherDisplay:10.37,2014-01-05 02:10:00,
2014-01-04 21:15:00,57.2,56.4,30.15,WSW,258,3.0,6.0,97,0.00,BKN,,0.00,WeatherDisplay:10.37,2014-01-05 02:15:00,
2014-01-04 21:20:00,57.2,56.4,30.15,SW,225,5.8,5.8,97,0.00,BKN,,0.00,WeatherDisplay:10.37,2014-01-05 02:20:00,
2014-01-04 21:25:00,57.2,56.4,30.15,SW,225,1.2,1.2,97,0.00,BKN,,0.00,WeatherDisplay:10.37,2014-01-05 02:25:00,
2014-01-04 21:30:00,57.2,56.4,30.15,SW,217,1.0,3.0,97,0.00,BKN,,0.00,WeatherDisplay:10.37,2014-01-05 02:30:00,
2014-01-04 21:35:00,57.2,56.4,30.15,WSW,248,3.8,3.8,97,0.00,BKN,,0.00,WeatherDisplay:10.37,2014-01-05 02:35:00,
2014-01-04 21:40:00,57.2,56.4,30.15,West,270,3.5,3.5,97,0.00,BKN,,0.00,WeatherDisplay:10.37,2014-01-05 02:40:00,
2014-01-04 21:45:00,57.2,56.4,30.15,SW,225,2.4,0.0,97,0.00,BKN,,0.00,WeatherDisplay:10.37,2014-01-05 02:45:00,
2014-01-04 21:50:00,57.2,56.4,30.15,WNW,292,2.6,2.9,97,0.00,BKN,,0.00,WeatherDisplay:10.37,2014-01-05 02:50:00,
2014-01-04 21:55:00,57.2,56.4,30.15,WNW,287,1.0,3.0,97,0.00,BKN,,0.00,WeatherDisplay:10.37,2014-01-05 02:55:00,
2014-01-04 22:00:00,57.2,56.4,30.15,WNW,292,2.3,2.3,97,0.00,BKN,,0.00,WeatherDisplay:10.37,2014-01-05 03:00:00,
2014-01-04 22:05:00,57.2,56.4,30.15,SW,225,1.2,0.0,97,0.00,OVC,,0.00,WeatherDisplay:10.37,2014-01-05 03:05:00,
2014-01-04 22:10:00,57.2,56.6,30.15,WSW,253,2.0,4.0,98,0.00,OVC,,0.00,WeatherDisplay:10.37,2014-01-05 03:10:00,
2014-01-04 22:15:00,57.2,56.6,30.15,WNW,292,3.5,3.5,98,0.00,OVC,,0.00,WeatherDisplay:10.37,2014-01-05 03:15:00,
2014-01-04 22:20:00,57.2,56.6,30.15,WNW,292,3.6,3.6,98,0.00,OVC,,0.00,WeatherDisplay:10.37,2014-01-05 03:20:00,
2014-01-04 22:25:00,57.0,56.5,30.15,WNW,287,2.0,5.0,98,0.00,OVC,,0.00,WeatherDisplay:10.37,2014-01-05 03:25:00,
2014-01-04 22:30:00,57.0,56.5,30.15,WNW,292,3.1,3.1,98,0.00,OVC,,0.00,WeatherDisplay:10.37,2014-01-05 03:30:00,
2014-01-04 22:35:00,57.0,56.5,30.15,WNW,291,1.0,4.0,98,0.00,OVC,,0.00,WeatherDisplay:10.37,2014-01-05 03:35:00,
2014-01-04 22:40:00,57.0,56.5,30.15,WNW,292,0.0,0.0,98,0.00,OVC,,0.00,WeatherDisplay:10.37,2014-01-05 03:40:00,
2014-01-04 22:45:00,56.8,56.3,30.15,WNW,292,1.2,1.4,98,0.00,OVC,,0.00,WeatherDisplay:10.37,2014-01-05 03:45:00,
2014-01-04 22:50:00,56.8,56.3,30.15,West,268,2.0,3.0,98,0.00,OVC,,0.00,WeatherDisplay:10.37,2014-01-05 03:50:00,
2014-01-04 22:55:00,56.8,56.3,30.15,WSW,248,2.3,2.3,98,0.00,OVC,,0.00,WeatherDisplay:10.37,2014-01-05 03:55:00,
2014-01-04 23:00:00,56.7,56.1,30.15,WSW,248,5.8,5.8,98,0.00,OVC,,0.00,WeatherDisplay:10.37,2014-01-05 04:00:00,
2014-01-04 23:05:00,56.7,56.1,30.12,WSW,239,2.0,3.0,98,0.00,CLR,,0.00,WeatherDisplay:10.37,2014-01-05 04:05:00,
2014-01-04 23:10:00,56.7,56.1,30.12,SSW,211,2.0,6.0,98,0.00,CLR,,0.00,WeatherDisplay:10.37,2014-01-05 04:10:00,
2014-01-04 23:15:00,56.7,56.1,30.12,WSW,248,1.2,0.0,98,0.00,CLR,,0.00,WeatherDisplay:10.37,2014-01-05 04:15:00,
2014-01-04 23:20:00,56.7,56.1,30.12,SW,230,1.0,5.0,98,0.00,CLR,,0.00,WeatherDisplay:10.37,2014-01-05 04:20:00,
2014-01-04 23:25:00,56.7,56.1,30.12,WSW,246,2.0,4.0,98,0.00,CLR,,0.00,WeatherDisplay:10.37,2014-01-05 04:25:00,
2014-01-04 23:30:00,56.7,56.1,30.12,WSW,239,0.0,4.0,98,0.00,CLR,,0.00,WeatherDisplay:10.37,2014-01-05 04:30:00,
2014-01-04 23:35:00,56.7,56.1,30.12,SW,233,0.0,3.0,98,0.00,CLR,,0.00,WeatherDisplay:10.37,2014-01-05 04:35:00,
2014-01-04 23:40:00,56.7,56.1,30.12,WNW,292,3.5,3.5,98,0.00,CLR,,0.00,WeatherDisplay:10.37,2014-01-05 04:40:00,
2014-01-04 23:45:00,56.7,56.1,30.12,West,270,2.6,2.6,98,0.00,CLR,,0.00,WeatherDisplay:10.37,2014-01-05 04:45:00,
2014-01-04 23:50:00,56.7,56.1,30.12,WSW,248,2.3,2.3,98,0.00,CLR,,0.00,WeatherDisplay:10.37,2014-01-05 04:50:00,
2014-01-04 23:55:00,56.7,56.1,30.12,SSE,158,0.0,0.0,98,0.00,CLR,,0.00,WeatherDisplay:10.37,2014-01-05 04:55:00,